Time;durP1;ratioP1;P1;durP2;ratioP2;P2;SDS_P1;SDS_P2;PMS_P1;PMS_P2;Temp;Humidity;BMP_temperature;BMP_pressure;BME280_temperature;BME280_humidity;BME280_pressure;Samples;Min_cycle;Max_cycle;Signal;HPM_P1;HPM_P2
2023/03/14 00:00:44;;;;;;;;;;;;;;;;;;5004205;28;19917;-79
2023/03/14 00:03:32;;;;;;;;;;;;;;;;;;5004814;28;19925;-79
2023/03/14 00:06:18;;;;;;;;;;;;;;;;;;5004873;28;19918;-78
2023/03/14 00:09:05;;;;;;;;;;;;;;;;;;5005813;28;19922;-79
2023/03/14 00:11:51;;;;;;;;;;;;;;;;;;5005464;28;19921;-80
2023/03/14 00:14:38;;;;;;;;;;;;;;;;;;4996072;28;19933;-79
2023/03/14 00:17:24;;;;;;;;;;;;;;;;;;5004417;28;19917;-79
2023/03/14 00:20:11;;;;;;;;;;;;;;;;;;5005185;28;20384;-79
2023/03/14 00:22:58;;;;;;;;;;;;;;;;;;5006723;28;19988;-79
2023/03/14 00:25:44;;;;;;;;;;;;;;;;;;4996155;28;19924;-79
2023/03/14 00:28:31;;;;;;;;;;;;;;;;;;5005276;28;19917;-79
2023/03/14 00:31:17;;;;;;;;;;;;;;;;;;5005481;28;19926;-78
2023/03/14 00:34:03;;;;;;;;;;;;;;;;;;4996387;28;19931;-79
2023/03/14 00:36:50;;;;;;;;;;;;;;;;;;5003844;28;19921;-79
2023/03/14 00:39:36;;;;;;;;;;;;;;;;;;4999696;28;19920;-80
2023/03/14 00:42:23;;;;;;;;;;;;;;;;;;5002935;28;19921;-79
2023/03/14 00:45:10;;;;;;;;;;;;;;;;;;5003371;28;19928;-79
2023/03/14 00:47:56;;;;;;;;;;;;;;;;;;5004980;28;20284;-79
2023/03/14 00:50:42;;;;;;;;;;;;;;;;;;4999291;28;19940;-79
2023/03/14 00:53:29;;;;;;;;;;;;;;;;;;5003067;28;19922;-79
2023/03/14 00:56:15;;;;;;;;;;;;;;;;;;5005010;28;19960;-80
2023/03/14 00:59:02;;;;;;;;;;;;;;;;;;5009335;28;19917;-80
2023/03/14 01:01:48;;;;;;;;;;;;;;;;;;5003670;28;19932;-80
2023/03/14 01:04:36;;;;;;;;;;;;;;;;;;5005069;28;20554;-80
2023/03/14 01:07:23;;;;;;;;;;;;;;;;;;5004096;28;20161;-80
2023/03/14 01:10:09;;;;;;;;;;;;;;;;;;5004042;28;19925;-78
2023/03/14 01:12:56;;;;;;;;;;;;;;;;;;5004531;28;19921;-80
2023/03/14 01:15:42;;;;;;;;;;;;;;;;;;4999009;28;19922;-80
2023/03/14 01:18:28;;;;;;;;;;;;;;;;;;5004542;28;19924;-80
2023/03/14 01:21:15;;;;;;;;;;;;;;;;;;5004486;28;19925;-79
2023/03/14 01:24:01;;;;;;;;;;;;;;;;;;5000094;28;19917;-80
2023/03/14 01:26:48;;;;;;;;;;;;;;;;;;5000699;28;20447;-78
2023/03/14 01:29:34;;;;;;;;;;;;;;;;;;4999640;28;20490;-78
2023/03/14 01:32:21;;;;;;;;;;;;;;;;;;5002742;28;19914;-80
2023/03/14 01:35:07;;;;;;;;;;;;;;;;;;4995824;28;20376;-78
2023/03/14 01:37:54;;;;;;;;;;;;;;;;;;5005482;28;19918;-78
2023/03/14 01:40:40;;;;;;;;;;;;;;;;;;5001861;28;19917;-78
2023/03/14 01:43:27;;;;;;;;;;;;;;;;;;5003833;28;19918;-78
2023/03/14 01:46:13;;;;;;;;;;;;;;;;;;5006905;28;19925;-77
2023/03/14 01:49:00;;;;;;;;;;;;;;;;;;5000844;28;20583;-79
2023/03/14 01:51:46;;;;;;;;;;;;;;;;;;5004301;28;19921;-77
2023/03/14 01:54:33;;;;;;;;;;;;;;;;;;4998830;28;19924;-78
2023/03/14 01:57:19;;;;;;;;;;;;;;;;;;5003581;28;20301;-78
2023/03/14 02:00:11;;;;;;;;;;;;;;;;;;4994286;28;20056;-78
2023/03/14 02:02:58;;;;;;;;;;;;;;;;;;4997845;28;19964;-78
2023/03/14 02:05:44;;;;;;;;;;;;;;;;;;5000879;28;19918;-79
2023/03/14 02:08:30;;;;;;;;;;;;;;;;;;5003732;28;19924;-78
2023/03/14 02:11:17;;;;;;;;;;;;;;;;;;4997102;28;19925;-77
2023/03/14 02:14:03;;;;;;;;;;;;;;;;;;5000487;28;19921;-80
2023/03/14 02:16:50;;;;;;;;;;;;;;;;;;4999754;28;19917;-80
2023/03/14 02:19:36;;;;;;;;;;;;;;;;;;5003859;28;19914;-79
2023/03/14 02:22:23;;;;;;;;;;;;;;;;;;5003471;28;20016;-79
2023/03/14 02:25:09;;;;;;;;;;;;;;;;;;5003349;28;19917;-79
2023/03/14 02:27:56;;;;;;;;;;;;;;;;;;4992476;28;20413;-80
2023/03/14 02:30:42;;;;;;;;;;;;;;;;;;4998582;28;19925;-80
2023/03/14 02:33:29;;;;;;;;;;;;;;;;;;5002819;28;20681;-80
2023/03/14 02:36:15;;;;;;;;;;;;;;;;;;5003817;28;19914;-80
2023/03/14 02:39:03;;;;;;;;;;;;;;;;;;4995049;28;19928;-80
2023/03/14 02:41:49;;;;;;;;;;;;;;;;;;5003936;28;19924;-80
2023/03/14 02:44:35;;;;;;;;;;;;;;;;;;4999332;28;19918;-80
2023/03/14 02:47:22;;;;;;;;;;;;;;;;;;4995673;28;19921;-80
2023/03/14 02:50:08;;;;;;;;;;;;;;;;;;4999946;28;19960;-79
2023/03/14 02:52:55;;;;;;;;;;;;;;;;;;4999279;28;19917;-80
2023/03/14 02:55:41;;;;;;;;;;;;;;;;;;5002871;28;19941;-80
2023/03/14 02:58:28;;;;;;;;;;;;;;;;;;4998768;28;20403;-80
2023/03/14 03:01:14;;;;;;;;;;;;;;;;;;5002833;28;19924;-81
2023/03/14 03:04:01;;;;;;;;;;;;;;;;;;5004322;28;19947;-79
2023/03/14 03:06:47;;;;;;;;;;;;;;;;;;5002649;28;19921;-79
2023/03/14 03:09:34;;;;;;;;;;;;;;;;;;5003857;28;19932;-80
2023/03/14 03:12:20;;;;;;;;;;;;;;;;;;4998464;28;20388;-80
2023/03/14 03:15:07;;;;;;;;;;;;;;;;;;5007271;28;19920;-80
2023/03/14 03:17:53;;;;;;;;;;;;;;;;;;5001980;28;20294;-79
2023/03/14 03:20:40;;;;;;;;;;;;;;;;;;5001060;28;19924;-79
2023/03/14 03:23:26;;;;;;;;;;;;;;;;;;5003089;28;19917;-79
2023/03/14 03:26:12;;;;;;;;;;;;;;;;;;4998577;28;19924;-79
2023/03/14 03:28:59;;;;;;;;;;;;;;;;;;4996884;28;20341;-80
2023/03/14 03:31:45;;;;;;;;;;;;;;;;;;4999239;28;19926;-81
2023/03/14 03:34:32;;;;;;;;;;;;;;;;;;5004084;28;19921;-80
2023/03/14 03:37:18;;;;;;;;;;;;;;;;;;5003691;28;19918;-80
2023/03/14 03:40:08;;;;;;;;;;;;;;;;;;5006647;28;19917;-80
2023/03/14 03:42:55;;;;;;;;;;;;;;;;;;5005286;28;19913;-80
2023/03/14 03:45:41;;;;;;;;;;;;;;;;;;5007188;28;19917;-80
2023/03/14 03:48:28;;;;;;;;;;;;;;;;;;4998546;28;19932;-80
2023/03/14 03:51:14;;;;;;;;;;;;;;;;;;5002598;28;20396;-79
2023/03/14 03:54:01;;;;;;;;;;;;;;;;;;5003208;28;19917;-82
2023/03/14 03:56:47;;;;;;;;;;;;;;;;;;5000416;28;19917;-80
2023/03/14 03:59:34;;;;;;;;;;;;;;;;;;5001681;28;19918;-80
2023/03/14 04:02:20;;;;;;;;;;;;;;;;;;5006222;28;19933;-80
2023/03/14 04:05:07;;;;;;;;;;;;;;;;;;5004487;28;20411;-80
2023/03/14 04:07:53;;;;;;;;;;;;;;;;;;5006142;28;19918;-81
2023/03/14 04:10:40;;;;;;;;;;;;;;;;;;4999062;28;19960;-80
2023/03/14 04:13:26;;;;;;;;;;;;;;;;;;5005332;28;19924;-80
2023/03/14 04:16:12;;;;;;;;;;;;;;;;;;5006784;28;19924;-80
2023/03/14 04:18:59;;;;;;;;;;;;;;;;;;5006594;28;19918;-80
2023/03/14 04:21:46;;;;;;;;;;;;;;;;;;5004763;28;19918;-81
2023/03/14 04:24:33;;;;;;;;;;;;;;;;;;5011934;28;19940;-81
2023/03/14 04:27:19;;;;;;;;;;;;;;;;;;4994487;28;19917;-81
2023/03/14 04:30:06;;;;;;;;;;;;;;;;;;4996848;28;19936;-81
2023/03/14 04:32:52;;;;;;;;;;;;;;;;;;5002369;28;19929;-79
2023/03/14 04:35:39;;;;;;;;;;;;;;;;;;5001085;28;19917;-78
2023/03/14 04:38:25;;;;;;;;;;;;;;;;;;5001697;28;20638;-79
2023/03/14 04:41:12;;;;;;;;;;;;;;;;;;4998408;28;19922;-78
2023/03/14 04:43:58;;;;;;;;;;;;;;;;;;5003638;28;19948;-79
2023/03/14 04:46:44;;;;;;;;;;;;;;;;;;4998902;28;20300;-79
2023/03/14 04:49:31;;;;;;;;;;;;;;;;;;5002707;28;19919;-79
2023/03/14 04:52:18;;;;;;;;;;;;;;;;;;5002055;28;19917;-79
2023/03/14 04:55:04;;;;;;;;;;;;;;;;;;5001544;28;19994;-78
2023/03/14 04:57:51;;;;;;;;;;;;;;;;;;5004159;28;19917;-77
2023/03/14 05:00:37;;;;;;;;;;;;;;;;;;4999812;28;19945;-78
2023/03/14 05:03:24;;;;;;;;;;;;;;;;;;4995860;28;19934;-77
2023/03/14 05:06:10;;;;;;;;;;;;;;;;;;4997849;28;20384;-78
2023/03/14 05:08:56;;;;;;;;;;;;;;;;;;5002492;28;20396;-78
2023/03/14 05:11:43;;;;;;;;;;;;;;;;;;4997402;28;19929;-78
2023/03/14 05:14:29;;;;;;;;;;;;;;;;;;5002568;28;20297;-78
2023/03/14 05:17:16;;;;;;;;;;;;;;;;;;5008110;28;19922;-77
2023/03/14 05:20:08;;;;;;;;;;;;;;;;;;5004616;28;19940;-78
2023/03/14 05:22:55;;;;;;;;;;;;;;;;;;5002331;28;20296;-79
2023/03/14 05:25:41;;;;;;;;;;;;;;;;;;5002401;28;20289;-78
2023/03/14 05:28:28;;;;;;;;;;;;;;;;;;5001317;28;19918;-78
2023/03/14 05:31:14;;;;;;;;;;;;;;;;;;4995358;28;19929;-78
2023/03/14 05:34:01;;;;;;;;;;;;;;;;;;5001252;28;19924;-78
2023/03/14 05:36:47;;;;;;;;;;;;;;;;;;4995088;28;19922;-78
2023/03/14 05:39:34;;;;;;;;;;;;;;;;;;4997821;28;19918;-78
2023/03/14 05:42:20;;;;;;;;;;;;;;;;;;4993478;28;19913;-78
2023/03/14 05:45:07;;;;;;;;;;;;;;;;;;4993716;28;19929;-78
2023/03/14 05:47:53;;;;;;;;;;;;;;;;;;5003164;28;20013;-80
2023/03/14 05:50:40;;;;;;;;;;;;;;;;;;5003063;28;19930;-79
2023/03/14 05:53:26;;;;;;;;;;;;;;;;;;4999464;28;19917;-80
2023/03/14 05:56:13;;;;;;;;;;;;;;;;;;5003901;28;19918;-80
2023/03/14 05:59:02;;;;;;;;;;;;;;;;;;5000142;28;19917;-79
2023/03/14 06:01:48;;;;;;;;;;;;;;;;;;5003699;28;20020;-79
2023/03/14 06:04:34;;;;;;;;;;;;;;;;;;5004176;28;20487;-80
2023/03/14 06:07:21;;;;;;;;;;;;;;;;;;5003187;28;19918;-78
2023/03/14 06:10:07;;;;;;;;;;;;;;;;;;5003487;28;20881;-80
2023/03/14 06:12:54;;;;;;;;;;;;;;;;;;5014071;28;20642;-79
2023/03/14 06:15:40;;;;;;;;;;;;;;;;;;5001224;28;19928;-79
2023/03/14 06:18:27;;;;;;;;;;;;;;;;;;5002212;28;19939;-78
2023/03/14 06:21:13;;;;;;;;;;;;;;;;;;4992464;28;20392;-79
2023/03/14 06:24:00;;;;;;;;;;;;;;;;;;5003905;28;19917;-79
2023/03/14 06:26:46;;;;;;;;;;;;;;;;;;5003520;28;20301;-79
2023/03/14 06:29:33;;;;;;;;;;;;;;;;;;4995572;28;19918;-78
2023/03/14 06:32:20;;;;;;;;;;;;;;;;;;5003394;28;19925;-78
2023/03/14 06:35:06;;;;;;;;;;;;;;;;;;5004774;28;19923;-78
2023/03/14 06:37:53;;;;;;;;;;;;;;;;;;5004273;28;19925;-78
2023/03/14 06:40:39;;;;;;;;;;;;;;;;;;5000006;28;19921;-78
2023/03/14 06:43:26;;;;;;;;;;;;;;;;;;5004833;28;19925;-79
2023/03/14 06:46:12;;;;;;;;;;;;;;;;;;5002926;28;20467;-77
2023/03/14 06:48:59;;;;;;;;;;;;;;;;;;5004610;28;19921;-79
2023/03/14 06:51:46;;;;;;;;;;;;;;;;;;4997118;28;19934;-78
2023/03/14 06:54:32;;;;;;;;;;;;;;;;;;5001522;28;19924;-78
2023/03/14 06:57:18;;;;;;;;;;;;;;;;;;4999718;28;19924;-79
2023/03/14 07:00:05;;;;;;;;;;;;;;;;;;5000251;28;19925;-79
2023/03/14 07:02:51;;;;;;;;;;;;;;;;;;4982834;28;20420;-79
2023/03/14 07:05:40;;;;;;;;;;;;;;;;;;4959434;28;19922;-79
2023/03/14 07:08:26;;;;;;;;;;;;;;;;;;4961997;28;19922;-79
2023/03/14 07:11:13;;;;;;;;;;;;;;;;;;4963102;28;19926;-77
2023/03/14 07:13:59;;;;;;;;;;;;;;;;;;4964514;28;19922;-77
2023/03/14 07:16:46;;;;;;;;;;;;;;;;;;4967974;28;19914;-78
2023/03/14 07:19:32;;;;;;;;;;;;;;;;;;4979861;28;19929;-78
2023/03/14 07:22:19;;;;;;;;;;;;;;;;;;4960849;28;19941;-79
2023/03/14 07:25:05;;;;;;;;;;;;;;;;;;4963356;28;19928;-79
2023/03/14 07:27:52;;;;;;;;;;;;;;;;;;4959529;28;19922;-78
2023/03/14 07:30:38;;;;;;;;;;;;;;;;;;4962510;28;19930;-78
2023/03/14 07:33:25;;;;;;;;;;;;;;;;;;4964518;28;20035;-78
2023/03/14 07:36:11;;;;;;;;;;;;;;;;;;4965739;28;19929;-79
2023/03/14 07:38:58;;;;;;;;;;;;;;;;;;4966388;28;19945;-79
2023/03/14 07:41:44;;;;;;;;;;;;;;;;;;4965599;28;20313;-79
2023/03/14 07:44:31;;;;;;;;;;;;;;;;;;4964202;28;19942;-79
2023/03/14 07:47:17;;;;;;;;;;;;;;;;;;4963238;28;20366;-79
2023/03/14 07:50:03;;;;;;;;;;;;;;;;;;4963598;28;19924;-80
2023/03/14 07:52:50;;;;;;;;;;;;;;;;;;4965616;28;19922;-79
2023/03/14 07:55:36;;;;;;;;;;;;;;;;;;4965570;28;20381;-79
2023/03/14 07:58:23;;;;;;;;;;;;;;;;;;4964583;28;19922;-78
2023/03/14 08:01:09;;;;;;;;;;;;;;;;;;4963651;28;19922;-77
2023/03/14 08:03:56;;;;;;;;;;;;;;;;;;4964607;28;19937;-78
2023/03/14 08:06:42;;;;;;;;;;;;;;;;;;4960600;28;19918;-78
2023/03/14 08:09:29;;;;;;;;;;;;;;;;;;4965378;28;19929;-79
2023/03/14 08:12:16;;;;;;;;;;;;;;;;;;4962111;28;19937;-78
2023/03/14 08:15:02;;;;;;;;;;;;;;;;;;4962698;28;19927;-77
2023/03/14 08:17:50;;;;;;;;;;;;;;;;;;4964679;28;19942;-78
2023/03/14 08:20:37;;;;;;;;;;;;;;;;;;4967172;28;19933;-77
2023/03/14 08:23:23;;;;;;;;;;;;;;;;;;4963794;28;19918;-78
2023/03/14 08:26:10;;;;;;;;;;;;;;;;;;4964654;28;19918;-78
2023/03/14 08:28:56;;;;;;;;;;;;;;;;;;4965684;28;20421;-78
2023/03/14 08:31:44;;;;;;;;;;;;;;;;;;4962115;28;19937;-78
2023/03/14 08:34:30;;;;;;;;;;;;;;;;;;4964383;28;19922;-78
2023/03/14 08:37:18;;;;;;;;;;;;;;;;;;4966797;28;19923;-78
2023/03/14 08:40:06;;;;;;;;;;;;;;;;;;4967407;28;19945;-78
2023/03/14 08:42:52;;;;;;;;;;;;;;;;;;4975834;28;19924;-78
2023/03/14 08:45:39;;;;;;;;;;;;;;;;;;4966528;28;19917;-79
2023/03/14 08:48:25;;;;;;;;;;;;;;;;;;4961850;28;19918;-79
2023/03/14 08:51:12;;;;;;;;;;;;;;;;;;4965433;28;19926;-77
2023/03/14 08:53:59;;;;;;;;;;;;;;;;;;4967523;28;19929;-78
2023/03/14 08:56:45;;;;;;;;;;;;;;;;;;4965344;28;19923;-78
2023/03/14 08:59:31;;;;;;;;;;;;;;;;;;4964330;28;19922;-78
2023/03/14 09:02:18;;;;;;;;;;;;;;;;;;4974348;28;19929;-78
2023/03/14 09:05:04;;;;;;;;;;;;;;;;;;5004962;28;20605;-77
2023/03/14 09:07:51;;;;;;;;;;;;;;;;;;5004806;28;19917;-78
2023/03/14 09:10:38;;;;;;;;;;;;;;;;;;5004259;28;19929;-78
2023/03/14 09:13:24;;;;;;;;;;;;;;;;;;5003385;28;19922;-79
2023/03/14 09:16:11;;;;;;;;;;;;;;;;;;5003552;28;19989;-79
2023/03/14 09:18:59;;;;;;;;;;;;;;;;;;5001589;28;20436;-78
2023/03/14 09:21:45;;;;;;;;;;;;;;;;;;4989380;28;19929;-78
2023/03/14 09:24:32;;;;;;;;;;;;;;;;;;4999244;28;20024;-78
2023/03/14 09:27:18;;;;;;;;;;;;;;;;;;5003826;28;19936;-78
2023/03/14 09:30:05;;;;;;;;;;;;;;;;;;5004671;28;19933;-78
2023/03/14 09:32:52;;;;;;;;;;;;;;;;;;4995632;28;19948;-78
2023/03/14 09:35:38;;;;;;;;;;;;;;;;;;4996528;28;20300;-78
2023/03/14 09:38:24;;;;;;;;;;;;;;;;;;4998833;28;19928;-78
2023/03/14 09:41:11;;;;;;;;;;;;;;;;;;5002849;28;19921;-78
2023/03/14 09:43:57;;;;;;;;;;;;;;;;;;5004312;28;19925;-79
2023/03/14 09:46:44;;;;;;;;;;;;;;;;;;4996656;28;19921;-79
2023/03/14 09:49:31;;;;;;;;;;;;;;;;;;5003138;28;20592;-79
2023/03/14 09:52:17;;;;;;;;;;;;;;;;;;5000840;28;19936;-80
2023/03/14 09:55:04;;;;;;;;;;;;;;;;;;5000914;28;19922;-77
2023/03/14 09:57:50;;;;;;;;;;;;;;;;;;5000494;28;19922;-78
2023/03/14 10:00:37;;;;;;;;;;;;;;;;;;4997304;28;20466;-78
2023/03/14 10:03:23;;;;;;;;;;;;;;;;;;5000074;28;19935;-78
2023/03/14 10:06:10;;;;;;;;;;;;;;;;;;5002904;28;19922;-78
2023/03/14 10:08:56;;;;;;;;;;;;;;;;;;5003364;28;20554;-78
2023/03/14 10:11:43;;;;;;;;;;;;;;;;;;5000711;28;19925;-78
2023/03/14 10:14:30;;;;;;;;;;;;;;;;;;5001826;28;19925;-77
2023/03/14 10:17:16;;;;;;;;;;;;;;;;;;4999594;28;19921;-78
2023/03/14 10:20:03;;;;;;;;;;;;;;;;;;5000572;28;19921;-78
2023/03/14 10:22:49;;;;;;;;;;;;;;;;;;5002399;28;19922;-78
2023/03/14 10:25:36;;;;;;;;;;;;;;;;;;5000863;28;19925;-78
2023/03/14 10:28:22;;;;;;;;;;;;;;;;;;4999469;28;19930;-79
2023/03/14 10:31:09;;;;;;;;;;;;;;;;;;5003280;28;20575;-78
2023/03/14 10:33:55;;;;;;;;;;;;;;;;;;5001138;28;19944;-79
2023/03/14 10:36:42;;;;;;;;;;;;;;;;;;5001738;28;20369;-78
2023/03/14 10:39:28;;;;;;;;;;;;;;;;;;4999086;28;19925;-78
2023/03/14 10:42:15;;;;;;;;;;;;;;;;;;5001179;28;19921;-78
2023/03/14 10:45:02;;;;;;;;;;;;;;;;;;5001664;28;19917;-79
2023/03/14 10:47:48;;;;;;;;;;;;;;;;;;5004629;28;19929;-79
2023/03/14 10:50:35;;;;;;;;;;;;;;;;;;5005388;28;19925;-78
2023/03/14 10:53:21;;;;;;;;;;;;;;;;;;5007433;28;20466;-78
2023/03/14 10:56:08;;;;;;;;;;;;;;;;;;5006907;28;19921;-78
2023/03/14 10:58:55;;;;;;;;;;;;;;;;;;5004361;28;19924;-78
2023/03/14 11:01:42;;;;;;;;;;;;;;;;;;4999706;28;20519;-78
2023/03/14 11:04:31;;;;;;;;;;;;;;;;;;5006933;28;20056;-79
2023/03/14 11:07:18;;;;;;;;;;;;;;;;;;5002820;28;19921;-79
2023/03/14 11:10:04;;;;;;;;;;;;;;;;;;5006495;28;19920;-79
2023/03/14 11:12:51;;;;;;;;;;;;;;;;;;5004827;28;19922;-78
2023/03/14 11:15:37;;;;;;;;;;;;;;;;;;5005654;28;19924;-79
2023/03/14 11:18:24;;;;;;;;;;;;;;;;;;5004437;28;20392;-78
2023/03/14 11:21:10;;;;;;;;;;;;;;;;;;5004539;28;19933;-77
2023/03/14 11:23:57;;;;;;;;;;;;;;;;;;5001798;28;19921;-78
2023/03/14 11:26:43;;;;;;;;;;;;;;;;;;5005113;28;19921;-78
2023/03/14 11:29:30;;;;;;;;;;;;;;;;;;5003936;28;19918;-78
2023/03/14 11:32:16;;;;;;;;;;;;;;;;;;5001682;28;19935;-78
2023/03/14 11:35:03;;;;;;;;;;;;;;;;;;4994522;28;19921;-79
2023/03/14 11:37:49;;;;;;;;;;;;;;;;;;5004051;28;20021;-79
2023/03/14 11:40:36;;;;;;;;;;;;;;;;;;5001984;28;19922;-79
2023/03/14 11:43:22;;;;;;;;;;;;;;;;;;5003215;28;19921;-78
2023/03/14 11:46:09;;;;;;;;;;;;;;;;;;5002639;28;19951;-78
2023/03/14 11:48:55;;;;;;;;;;;;;;;;;;5000057;28;20388;-78
2023/03/14 11:51:42;;;;;;;;;;;;;;;;;;5002742;28;19929;-79
2023/03/14 11:54:28;;;;;;;;;;;;;;;;;;5002783;28;20296;-79
2023/03/14 11:57:15;;;;;;;;;;;;;;;;;;4998248;28;19917;-78
2023/03/14 12:00:03;;;;;;;;;;;;;;;;;;5005687;28;19921;-79
2023/03/14 12:02:49;;;;;;;;;;;;;;;;;;5001647;28;19933;-78
2023/03/14 12:05:36;;;;;;;;;;;;;;;;;;5000885;28;19921;-79
2023/03/14 12:08:22;;;;;;;;;;;;;;;;;;5006966;28;20365;-79
2023/03/14 12:11:08;;;;;;;;;;;;;;;;;;5004965;28;19925;-77
2023/03/14 12:13:55;;;;;;;;;;;;;;;;;;5007076;28;19918;-79
2023/03/14 12:16:42;;;;;;;;;;;;;;;;;;5004941;28;19926;-79
2023/03/14 12:19:29;;;;;;;;;;;;;;;;;;5005837;28;19928;-81
2023/03/14 12:22:15;;;;;;;;;;;;;;;;;;5008229;28;20274;-79
2023/03/14 12:25:02;;;;;;;;;;;;;;;;;;5006088;28;19913;-79
2023/03/14 12:27:49;;;;;;;;;;;;;;;;;;5002781;28;19921;-79
2023/03/14 12:30:36;;;;;;;;;;;;;;;;;;5002956;28;19921;-78
2023/03/14 12:33:23;;;;;;;;;;;;;;;;;;4999593;28;20292;-77
2023/03/14 12:36:12;;;;;;;;;;;;;;;;;;5002491;28;19917;-78
2023/03/14 12:38:58;;;;;;;;;;;;;;;;;;5003755;28;19944;-78
2023/03/14 12:41:45;;;;;;;;;;;;;;;;;;5004596;28;19921;-79
2023/03/14 12:44:31;;;;;;;;;;;;;;;;;;5003554;28;19936;-78
2023/03/14 12:47:18;;;;;;;;;;;;;;;;;;4995100;28;19929;-79
2023/03/14 12:50:04;;;;;;;;;;;;;;;;;;5006376;28;19927;-78
2023/03/14 12:52:51;;;;;;;;;;;;;;;;;;5001307;28;20315;-78
2023/03/14 12:55:37;;;;;;;;;;;;;;;;;;5003955;28;19922;-78
2023/03/14 12:58:23;;;;;;;;;;;;;;;;;;5004168;28;19929;-78
2023/03/14 13:01:11;;;;;;;;;;;;;;;;;;5001542;28;19928;-78
2023/03/14 13:03:57;;;;;;;;;;;;;;;;;;5002165;28;20305;-79
2023/03/14 13:06:44;;;;;;;;;;;;;;;;;;5001987;28;21011;-79
2023/03/14 13:09:33;;;;;;;;;;;;;;;;;;5000460;28;19929;-79
2023/03/14 13:12:19;;;;;;;;;;;;;;;;;;5003035;28;20377;-78
2023/03/14 13:15:06;;;;;;;;;;;;;;;;;;5001173;28;19928;-79
2023/03/14 13:17:52;;;;;;;;;;;;;;;;;;5003041;28;20483;-79
2023/03/14 13:20:39;;;;;;;;;;;;;;;;;;5002950;28;19925;-79
2023/03/14 13:23:25;;;;;;;;;;;;;;;;;;5001078;28;19928;-79
2023/03/14 13:26:12;;;;;;;;;;;;;;;;;;5003417;28;19917;-78
2023/03/14 13:28:58;;;;;;;;;;;;;;;;;;5003117;28;19922;-79
2023/03/14 13:31:45;;;;;;;;;;;;;;;;;;5002471;28;19937;-79
2023/03/14 13:34:31;;;;;;;;;;;;;;;;;;4987350;28;20428;-79
2023/03/14 13:37:18;;;;;;;;;;;;;;;;;;5001635;28;19918;-79
2023/03/14 13:40:04;;;;;;;;;;;;;;;;;;4997503;28;20397;-79
2023/03/14 13:42:51;;;;;;;;;;;;;;;;;;5003277;28;19922;-79
2023/03/14 13:45:37;;;;;;;;;;;;;;;;;;4999676;28;19925;-79
2023/03/14 13:48:24;;;;;;;;;;;;;;;;;;5002062;28;19921;-79
2023/03/14 13:51:10;;;;;;;;;;;;;;;;;;4999466;28;19940;-78
2023/03/14 13:53:58;;;;;;;;;;;;;;;;;;4997159;28;19925;-78
2023/03/14 13:56:44;;;;;;;;;;;;;;;;;;4997231;28;19928;-79
2023/03/14 13:59:31;;;;;;;;;;;;;;;;;;5001426;28;19933;-80
2023/03/14 14:02:17;;;;;;;;;;;;;;;;;;4997801;28;19960;-79
2023/03/14 14:05:04;;;;;;;;;;;;;;;;;;5000548;28;20371;-79
2023/03/14 14:07:51;;;;;;;;;;;;;;;;;;4998865;28;19922;-79
2023/03/14 14:10:38;;;;;;;;;;;;;;;;;;5000567;28;19922;-78
2023/03/14 14:13:24;;;;;;;;;;;;;;;;;;4997283;28;20389;-77
2023/03/14 14:16:11;;;;;;;;;;;;;;;;;;5002784;28;19923;-77
2023/03/14 14:18:57;;;;;;;;;;;;;;;;;;4997895;28;20447;-78
2023/03/14 14:21:44;;;;;;;;;;;;;;;;;;5000913;28;19917;-78
2023/03/14 14:24:31;;;;;;;;;;;;;;;;;;4991079;28;19941;-78
2023/03/14 14:27:17;;;;;;;;;;;;;;;;;;4998199;28;19926;-78
2023/03/14 14:30:04;;;;;;;;;;;;;;;;;;5001942;28;20189;-78
2023/03/14 14:32:50;;;;;;;;;;;;;;;;;;5000267;28;20384;-78
2023/03/14 14:35:37;;;;;;;;;;;;;;;;;;5005732;28;19923;-78
2023/03/14 14:38:23;;;;;;;;;;;;;;;;;;4995240;28;19922;-78
2023/03/14 14:41:10;;;;;;;;;;;;;;;;;;4997368;28;20389;-78
2023/03/14 14:43:56;;;;;;;;;;;;;;;;;;5000276;28;19933;-78
2023/03/14 14:46:43;;;;;;;;;;;;;;;;;;5000168;28;19926;-78
2023/03/14 14:49:29;;;;;;;;;;;;;;;;;;4997505;28;20408;-78
2023/03/14 14:52:16;;;;;;;;;;;;;;;;;;4999741;28;19930;-77
2023/03/14 14:55:02;;;;;;;;;;;;;;;;;;5002431;28;19921;-78
2023/03/14 14:57:49;;;;;;;;;;;;;;;;;;4998923;28;19921;-78
2023/03/14 15:00:35;;;;;;;;;;;;;;;;;;5000163;28;19921;-78
2023/03/14 15:03:22;;;;;;;;;;;;;;;;;;5000378;28;19929;-78
2023/03/14 15:06:08;;;;;;;;;;;;;;;;;;5001681;28;19921;-78
2023/03/14 15:08:55;;;;;;;;;;;;;;;;;;4997874;28;19956;-78
2023/03/14 15:11:41;;;;;;;;;;;;;;;;;;4997687;28;20312;-79
2023/03/14 15:14:27;;;;;;;;;;;;;;;;;;4997756;28;19921;-79
2023/03/14 15:17:14;;;;;;;;;;;;;;;;;;4996631;28;19921;-79
2023/03/14 15:20:00;;;;;;;;;;;;;;;;;;4998387;28;19929;-79
2023/03/14 15:22:47;;;;;;;;;;;;;;;;;;4998386;28;19926;-81
2023/03/14 15:25:33;;;;;;;;;;;;;;;;;;4994452;28;19928;-80
2023/03/14 15:28:20;;;;;;;;;;;;;;;;;;4996778;28;20284;-80
2023/03/14 15:31:06;;;;;;;;;;;;;;;;;;5002360;28;20185;-81
2023/03/14 15:33:53;;;;;;;;;;;;;;;;;;5004198;28;19929;-81
2023/03/14 15:36:40;;;;;;;;;;;;;;;;;;5003052;28;19921;-78
2023/03/14 15:39:26;;;;;;;;;;;;;;;;;;5003352;28;19921;-78
2023/03/14 15:42:13;;;;;;;;;;;;;;;;;;5004433;28;19941;-78
2023/03/14 15:44:59;;;;;;;;;;;;;;;;;;5004130;28;19936;-78
2023/03/14 15:47:45;;;;;;;;;;;;;;;;;;5001106;28;20381;-78
2023/03/14 15:50:32;;;;;;;;;;;;;;;;;;5004589;28;20012;-78
2023/03/14 15:53:18;;;;;;;;;;;;;;;;;;5001071;28;19929;-78
2023/03/14 15:56:05;;;;;;;;;;;;;;;;;;5000577;28;19922;-79
2023/03/14 15:58:51;;;;;;;;;;;;;;;;;;5001902;28;19922;-79
2023/03/14 16:01:38;;;;;;;;;;;;;;;;;;4977257;28;19929;-79
2023/03/14 16:04:24;;;;;;;;;;;;;;;;;;5002121;28;19931;-78
2023/03/14 16:07:11;;;;;;;;;;;;;;;;;;5003837;28;19914;-79
2023/03/14 16:09:57;;;;;;;;;;;;;;;;;;5002410;28;19952;-79
2023/03/14 16:12:44;;;;;;;;;;;;;;;;;;4995373;28;19930;-78
2023/03/14 16:15:30;;;;;;;;;;;;;;;;;;5002928;28;19928;-78
2023/03/14 16:18:17;;;;;;;;;;;;;;;;;;5003897;28;19917;-78
2023/03/14 16:21:05;;;;;;;;;;;;;;;;;;5004658;28;20262;-78
2023/03/14 16:23:51;;;;;;;;;;;;;;;;;;4999161;28;19917;-78
2023/03/14 16:26:38;;;;;;;;;;;;;;;;;;5003507;28;19926;-77
2023/03/14 16:29:24;;;;;;;;;;;;;;;;;;5000989;28;19932;-77
2023/03/14 16:32:11;;;;;;;;;;;;;;;;;;5004841;28;19930;-78
2023/03/14 16:34:57;;;;;;;;;;;;;;;;;;4997646;28;20696;-78
2023/03/14 16:37:44;;;;;;;;;;;;;;;;;;5002716;28;20718;-78
2023/03/14 16:40:30;;;;;;;;;;;;;;;;;;5001532;28;19932;-78
2023/03/14 16:43:17;;;;;;;;;;;;;;;;;;4998803;28;19918;-77
2023/03/14 16:46:03;;;;;;;;;;;;;;;;;;5003079;28;19921;-79
2023/03/14 16:48:50;;;;;;;;;;;;;;;;;;5002353;28;19921;-79
2023/03/14 16:51:36;;;;;;;;;;;;;;;;;;5002339;28;20170;-79
2023/03/14 16:54:23;;;;;;;;;;;;;;;;;;5000642;28;19925;-78
2023/03/14 16:57:09;;;;;;;;;;;;;;;;;;4999151;28;19924;-78
2023/03/14 16:59:56;;;;;;;;;;;;;;;;;;5002508;28;19940;-79
2023/03/14 17:02:42;;;;;;;;;;;;;;;;;;5001969;28;20263;-79
2023/03/14 17:05:29;;;;;;;;;;;;;;;;;;4999681;28;19921;-80
2023/03/14 17:08:15;;;;;;;;;;;;;;;;;;5002818;28;19924;-79
2023/03/14 17:11:02;;;;;;;;;;;;;;;;;;5005061;28;20374;-78
2023/03/14 17:13:48;;;;;;;;;;;;;;;;;;5002824;28;19933;-79
2023/03/14 17:16:35;;;;;;;;;;;;;;;;;;4998303;28;19928;-79
2023/03/14 17:19:21;;;;;;;;;;;;;;;;;;5003403;28;19914;-79
2023/03/14 17:22:08;;;;;;;;;;;;;;;;;;5003569;28;19924;-80
2023/03/14 17:24:54;;;;;;;;;;;;;;;;;;5000512;28;19936;-80
2023/03/14 17:27:41;;;;;;;;;;;;;;;;;;5002046;28;19918;-80
2023/03/14 17:30:27;;;;;;;;;;;;;;;;;;5000666;28;20468;-80
2023/03/14 17:33:14;;;;;;;;;;;;;;;;;;5003455;28;19934;-79
2023/03/14 17:36:00;;;;;;;;;;;;;;;;;;5004700;28;20305;-80
2023/03/14 17:38:46;;;;;;;;;;;;;;;;;;4997643;28;20296;-78
2023/03/14 17:41:33;;;;;;;;;;;;;;;;;;5002197;28;19923;-79
2023/03/14 17:44:19;;;;;;;;;;;;;;;;;;5003157;28;19921;-78
2023/03/14 17:47:06;;;;;;;;;;;;;;;;;;5001813;28;20424;-78
2023/03/14 17:49:52;;;;;;;;;;;;;;;;;;5005016;28;19924;-80
2023/03/14 17:52:39;;;;;;;;;;;;;;;;;;4997685;28;19933;-79
2023/03/14 17:55:25;;;;;;;;;;;;;;;;;;5000438;28;19917;-79
2023/03/14 17:58:12;;;;;;;;;;;;;;;;;;5002441;28;19914;-80
2023/03/14 18:00:58;;;;;;;;;;;;;;;;;;5002664;28;20377;-80
2023/03/14 18:03:45;;;;;;;;;;;;;;;;;;5004514;28;19933;-80
2023/03/14 18:06:31;;;;;;;;;;;;;;;;;;5002746;28;19914;-80
2023/03/14 18:09:18;;;;;;;;;;;;;;;;;;4995312;28;19928;-79
2023/03/14 18:12:04;;;;;;;;;;;;;;;;;;4996920;28;20514;-79
2023/03/14 18:14:50;;;;;;;;;;;;;;;;;;5001266;28;19928;-79
2023/03/14 18:17:37;;;;;;;;;;;;;;;;;;4999117;28;19913;-79
2023/03/14 18:20:23;;;;;;;;;;;;;;;;;;5001005;28;19925;-79
2023/03/14 18:23:10;;;;;;;;;;;;;;;;;;5000593;28;20381;-79
2023/03/14 18:25:56;;;;;;;;;;;;;;;;;;5003842;28;19921;-79
2023/03/14 18:28:43;;;;;;;;;;;;;;;;;;4999376;28;19913;-78
2023/03/14 18:31:33;;;;;;;;;;;;;;;;;;5002378;28;19968;-81
2023/03/14 18:34:20;;;;;;;;;;;;;;;;;;5002127;28;19929;-79
2023/03/14 18:37:06;;;;;;;;;;;;;;;;;;5003971;28;19917;-79
2023/03/14 18:39:53;;;;;;;;;;;;;;;;;;5000488;28;19929;-80
2023/03/14 18:42:40;;;;;;;;;;;;;;;;;;5003099;28;19921;-78
2023/03/14 18:45:26;;;;;;;;;;;;;;;;;;5000311;28;19924;-78
2023/03/14 18:48:14;;;;;;;;;;;;;;;;;;5001684;28;20421;-78
2023/03/14 18:51:00;;;;;;;;;;;;;;;;;;4998738;28;19922;-79
2023/03/14 18:53:47;;;;;;;;;;;;;;;;;;4999641;28;19926;-79
2023/03/14 18:56:33;;;;;;;;;;;;;;;;;;5000197;28;19928;-78